Time;durP1;ratioP1;P1;durP2;ratioP2;P2;SDS_P1;SDS_P2;PMS_P1;PMS_P2;Temp;Humidity;BMP_temperature;BMP_pressure;BME280_temperature;BME280_humidity;BME280_pressure;Samples;Min_cycle;Max_cycle;Signal;HPM_P1;HPM_P2
2021/06/25 00:02:23;;;;;;;3.77;3.00;;;18.30;99.90;;;;;;5075325;28;20281;-59
2021/06/25 00:04:49;;;;;;;3.67;3.33;;;18.30;99.90;;;;;;5075589;28;20249;-55
2021/06/25 00:07:15;;;;;;;3.70;2.63;;;18.30;99.90;;;;;;5076357;28;20223;-50
2021/06/25 00:09:40;;;;;;;4.50;3.00;;;18.20;99.90;;;;;;5076081;28;20290;-56
2021/06/25 00:12:07;;;;;;;3.10;2.80;;;18.10;99.90;;;;;;5075098;28;20204;-55
2021/06/25 00:14:34;;;;;;;3.63;2.53;;;18.00;99.90;;;;;;5076407;28;20178;-57
2021/06/25 00:17:01;;;;;;;4.30;2.77;;;18.00;99.90;;;;;;5075291;28;20239;-50
2021/06/25 00:19:27;;;;;;;3.57;2.70;;;18.20;99.90;;;;;;5076014;28;20665;-54
2021/06/25 00:21:52;;;;;;;3.83;2.83;;;18.20;99.90;;;;;;5076082;28;20175;-58
2021/06/25 00:24:18;;;;;;;2.50;2.30;;;18.30;99.90;;;;;;5075805;28;20657;-55
2021/06/25 00:26:43;;;;;;;3.40;2.80;;;18.30;99.90;;;;;;5076832;28;20286;-57
2021/06/25 00:29:09;;;;;;;2.70;2.50;;;18.40;99.90;;;;;;5075290;28;20198;-57
2021/06/25 00:31:36;;;;;;;3.30;2.70;;;18.50;99.90;;;;;;5076070;28;20519;-59
2021/06/25 00:34:02;;;;;;;2.60;2.40;;;18.50;99.90;;;;;;5075249;28;20214;-53
2021/06/25 00:36:28;;;;;;;2.93;2.60;;;18.40;99.90;;;;;;5076496;28;20323;-58
2021/06/25 00:38:53;;;;;;;3.17;2.57;;;18.20;99.90;;;;;;5076408;28;20694;-53
2021/06/25 00:41:19;;;;;;;2.57;2.37;;;18.20;99.90;;;;;;5074438;28;20175;-56
2021/06/25 00:43:44;;;;;;;2.53;2.30;;;18.00;99.90;;;;;;5075556;28;20305;-52
2021/06/25 00:46:11;;;;;;;3.00;2.67;;;18.00;99.90;;;;;;5075687;28;20229;-54
2021/06/25 00:48:37;;;;;;;2.93;2.63;;;17.90;99.90;;;;;;5074366;28;20212;-57
2021/06/25 00:51:03;;;;;;;2.23;2.13;;;17.90;99.90;;;;;;5075717;28;20175;-55
2021/06/25 00:53:29;;;;;;;3.87;2.60;;;17.80;99.90;;;;;;5074942;28;20249;-56
2021/06/25 00:55:54;;;;;;;4.70;2.70;;;17.90;99.90;;;;;;5075991;28;20705;-58
2021/06/25 00:58:22;;;;;;;2.83;2.60;;;17.80;99.90;;;;;;5073944;28;20205;-55
2021/06/25 01:00:48;;;;;;;2.70;2.50;;;17.70;99.90;;;;;;5075527;28;20252;-57
2021/06/25 01:03:14;;;;;;;3.77;2.70;;;17.60;99.90;;;;;;5074996;28;20215;-57
2021/06/25 01:05:40;;;;;;;3.23;2.93;;;17.50;99.90;;;;;;5075312;28;20203;-49
2021/06/25 01:08:07;;;;;;;2.60;2.40;;;17.40;99.90;;;;;;5075045;28;20687;-58
2021/06/25 01:10:35;;;;;;;4.27;2.70;;;17.40;99.90;;;;;;5075433;28;20172;-52
2021/06/25 01:13:01;;;;;;;2.97;2.30;;;17.40;99.90;;;;;;5073687;28;20191;-52
2021/06/25 01:15:26;;;;;;;2.70;2.50;;;17.40;99.90;;;;;;5075089;28;20601;-53
2021/06/25 01:17:52;;;;;;;2.97;2.37;;;17.30;99.90;;;;;;5074971;28;20193;-53
2021/06/25 01:20:25;;;;;;;3.20;2.40;;;17.30;99.90;;;;;;5075042;28;20177;-55
2021/06/25 01:22:50;;;;;;;2.03;1.90;;;17.30;99.90;;;;;;5074459;28;20177;-59
2021/06/25 01:25:24;;;;;;;2.70;2.10;;;17.20;99.90;;;;;;5074694;28;20170;-51
2021/06/25 01:27:52;;;;;;;3.70;2.33;;;17.10;99.90;;;;;;5073977;28;20227;-53
2021/06/25 01:30:21;;;;;;;2.77;2.40;;;17.10;99.90;;;;;;5075729;28;20170;-58
2021/06/25 01:32:48;;;;;;;2.40;2.00;;;17.10;99.90;;;;;;5073675;28;20176;-52
2021/06/25 01:35:15;;;;;;;3.13;2.10;;;17.30;99.90;;;;;;5075248;28;20172;-51
2021/06/25 01:37:41;;;;;;;2.70;2.50;;;17.40;99.90;;;;;;5074305;28;20718;-56
2021/06/25 01:40:10;;;;;;;2.63;2.40;;;17.60;99.90;;;;;;5075147;28;20172;-59
2021/06/25 01:42:37;;;;;;;2.57;2.30;;;17.80;99.90;;;;;;5074768;28;20588;-58
2021/06/25 01:45:07;;;;;;;3.17;2.30;;;17.80;99.90;;;;;;5073862;28;20168;-52
2021/06/25 01:47:35;;;;;;;3.27;1.87;;;17.80;99.90;;;;;;5074500;28;20201;-54
2021/06/25 01:50:06;;;;;;;2.73;2.53;;;17.90;99.90;;;;;;5074922;28;20168;-50
2021/06/25 01:52:32;;;;;;;2.40;1.90;;;17.90;99.90;;;;;;5074785;28;20252;-52
2021/06/25 01:54:58;;;;;;;6.00;2.30;;;18.00;99.90;;;;;;5073574;28;20267;-49
2021/06/25 01:57:23;;;;;;;2.17;1.90;;;17.90;99.90;;;;;;5074632;28;20206;-54
2021/06/25 01:59:49;;;;;;;1.70;1.60;;;17.80;99.90;;;;;;5073380;28;20625;-53
2021/06/25 02:02:14;;;;;;;1.70;1.60;;;17.70;99.90;;;;;;5074619;28;20196;-58
2021/06/25 02:04:40;;;;;;;2.87;2.00;;;17.70;99.90;;;;;;5074065;28;20170;-50
2021/06/25 02:07:05;;;;;;;3.63;2.03;;;17.70;99.90;;;;;;5072544;28;20212;-52
2021/06/25 02:09:32;;;;;;;3.67;1.97;;;17.90;99.90;;;;;;5074430;28;20256;-50
2021/06/25 02:11:57;;;;;;;3.20;2.00;;;17.90;99.90;;;;;;5073800;28;20264;-52
2021/06/25 02:14:24;;;;;;;2.33;2.00;;;17.70;99.90;;;;;;5074927;28;20314;-50
2021/06/25 02:16:49;;;;;;;4.03;2.10;;;17.60;99.90;;;;;;5074816;28;20209;-52
2021/06/25 02:19:15;;;;;;;3.50;2.17;;;17.60;99.90;;;;;;5074243;28;20189;-54
2021/06/25 02:21:40;;;;;;;2.43;1.90;;;17.70;99.90;;;;;;5073568;28;20706;-53
2021/06/25 02:24:06;;;;;;;2.57;1.77;;;17.80;99.90;;;;;;5072958;28;20497;-52
2021/06/25 02:26:32;;;;;;;2.00;1.63;;;17.80;99.90;;;;;;5073650;28;20210;-50
2021/06/25 02:28:57;;;;;;;2.20;1.80;;;17.70;99.90;;;;;;5073275;28;20254;-52
2021/06/25 02:31:23;;;;;;;1.60;1.50;;;17.80;99.90;;;;;;5074191;28;20536;-50
2021/06/25 02:33:48;;;;;;;3.10;1.90;;;17.90;99.90;;;;;;5074751;28;20178;-57
2021/06/25 02:36:14;;;;;;;1.80;1.70;;;17.90;99.90;;;;;;5073504;28;20183;-54
2021/06/25 02:38:40;;;;;;;2.13;1.90;;;17.90;99.90;;;;;;5074415;28;20208;-52
2021/06/25 02:41:05;;;;;;;2.20;2.00;;;17.90;99.90;;;;;;5073603;28;20181;-51
2021/06/25 02:43:31;;;;;;;2.20;1.70;;;17.90;99.90;;;;;;5073967;28;20171;-55
2021/06/25 02:45:56;;;;;;;2.37;2.00;;;17.70;99.90;;;;;;5073936;28;20214;-49
2021/06/25 02:48:22;;;;;;;2.00;1.90;;;17.60;99.90;;;;;;5073276;28;20232;-58
2021/06/25 02:50:47;;;;;;;2.40;2.13;;;17.40;99.90;;;;;;5073685;28;20622;-56
2021/06/25 02:53:13;;;;;;;2.20;2.00;;;17.30;99.90;;;;;;5072371;28;20246;-55
2021/06/25 02:55:51;;;;;;;2.07;1.70;;;17.20;99.90;;;;;;5073994;28;20176;-57
2021/06/25 02:58:23;;;;;;;2.43;1.60;;;17.10;99.90;;;;;;5072584;28;20192;-50
2021/06/25 03:00:50;;;;;;;3.80;1.70;;;16.90;99.90;;;;;;5073363;28;20659;-53
2021/06/25 03:03:16;;;;;;;1.93;1.80;;;16.80;99.90;;;;;;5073605;28;20219;-55
2021/06/25 03:05:42;;;;;;;2.33;1.93;;;16.70;99.90;;;;;;5072707;28;20225;-50
2021/06/25 03:08:08;;;;;;;2.60;1.60;;;16.70;99.90;;;;;;5073893;28;20194;-54
2021/06/25 03:10:34;;;;;;;1.90;1.70;;;16.70;99.90;;;;;;5073383;28;20176;-59
2021/06/25 03:12:59;;;;;;;2.30;1.80;;;16.60;99.90;;;;;;5073216;28;20185;-53
2021/06/25 03:15:25;;;;;;;3.37;2.00;;;16.50;99.90;;;;;;5072404;28;20210;-49
2021/06/25 03:17:50;;;;;;;1.83;1.73;;;16.50;99.90;;;;;;5073183;28;20291;-58
2021/06/25 03:20:16;;;;;;;2.63;1.90;;;16.50;99.90;;;;;;5073564;28;20194;-54
2021/06/25 03:22:42;;;;;;;2.03;1.87;;;16.50;99.90;;;;;;5072136;28;20172;-51
2021/06/25 03:25:08;;;;;;;2.63;1.87;;;16.60;99.90;;;;;;5073748;28;20194;-51
2021/06/25 03:27:35;;;;;;;2.13;2.03;;;16.60;99.90;;;;;;5073617;28;20714;-55
2021/06/25 03:30:00;;;;;;;2.00;1.90;;;16.60;99.90;;;;;;5074153;28;20197;-52
2021/06/25 03:32:26;;;;;;;2.70;2.07;;;16.70;99.90;;;;;;5071960;28;20194;-51
2021/06/25 03:34:52;;;;;;;3.17;2.07;;;16.60;99.90;;;;;;5073733;28;20190;-52
2021/06/25 03:37:17;;;;;;;3.97;2.00;;;16.70;99.90;;;;;;5075530;28;20674;-50
2021/06/25 03:39:43;;;;;;;2.47;1.93;;;16.80;99.90;;;;;;5077272;28;20174;-51
2021/06/25 03:42:09;;;;;;;2.37;2.20;;;16.80;99.90;;;;;;5076555;28;20170;-54
2021/06/25 03:44:34;;;;;;;1.80;1.70;;;16.80;99.90;;;;;;5075881;28;20209;-58
2021/06/25 03:47:00;;;;;;;2.17;1.97;;;16.70;99.90;;;;;;5077364;28;20216;-49
2021/06/25 03:49:26;;;;;;;2.50;2.20;;;16.70;99.90;;;;;;5075850;28;20175;-53
2021/06/25 03:51:51;;;;;;;2.00;1.90;;;16.70;99.90;;;;;;5076506;28;20206;-52
2021/06/25 03:54:17;;;;;;;2.20;2.00;;;16.70;99.90;;;;;;5076477;28;20183;-50
2021/06/25 03:56:43;;;;;;;3.87;2.50;;;16.70;99.90;;;;;;5075327;28;20223;-53
2021/06/25 03:59:08;;;;;;;3.00;2.33;;;16.80;99.90;;;;;;5076523;28;20179;-57
2021/06/25 04:01:34;;;;;;;2.47;2.30;;;16.80;99.90;;;;;;5075732;28;20178;-54
2021/06/25 04:03:59;;;;;;;2.60;2.10;;;16.80;99.90;;;;;;5076468;28;20227;-55
2021/06/25 04:06:25;;;;;;;2.33;2.20;;;16.90;99.90;;;;;;5076303;28;20207;-53
2021/06/25 04:08:50;;;;;;;2.50;2.30;;;16.90;99.90;;;;;;5076435;28;20207;-50
2021/06/25 04:11:18;;;;;;;2.70;2.50;;;16.90;99.90;;;;;;5076428;28;20188;-59
2021/06/25 04:13:43;;;;;;;3.53;2.40;;;16.90;99.90;;;;;;5075134;28;20191;-50
2021/06/25 04:16:09;;;;;;;2.90;2.20;;;16.80;99.90;;;;;;5076541;28;20206;-58
2021/06/25 04:18:35;;;;;;;2.83;2.63;;;16.80;99.90;;;;;;5075111;28;20197;-54
2021/06/25 04:21:00;;;;;;;2.50;2.30;;;16.90;99.90;;;;;;5076031;28;20169;-52
2021/06/25 04:23:26;;;;;;;2.80;2.60;;;17.10;99.90;;;;;;5076105;28;20527;-51
2021/06/25 04:25:52;;;;;;;2.63;2.43;;;17.20;99.90;;;;;;5074893;28;20255;-53
2021/06/25 04:28:18;;;;;;;2.87;2.57;;;17.20;99.90;;;;;;5076069;28;20555;-51
2021/06/25 04:30:44;;;;;;;2.53;2.33;;;17.10;99.90;;;;;;5075447;28;20662;-52
2021/06/25 04:33:13;;;;;;;2.67;2.47;;;17.10;99.90;;;;;;5076194;28;20183;-53
2021/06/25 04:35:40;;;;;;;2.97;2.60;;;17.10;99.90;;;;;;5075162;28;20216;-51
2021/06/25 04:38:05;;;;;;;2.60;2.37;;;17.10;99.90;;;;;;5076228;28;20218;-49
2021/06/25 04:40:32;;;;;;;2.47;2.33;;;17.00;99.90;;;;;;5074957;28;20179;-55
2021/06/25 04:42:58;;;;;;;2.50;2.40;;;17.10;99.90;;;;;;5075457;28;20224;-50
2021/06/25 04:45:25;;;;;;;2.13;2.03;;;17.20;99.90;;;;;;5075897;28;20177;-55
2021/06/25 04:47:50;;;;;;;3.63;2.30;;;17.20;99.90;;;;;;5074115;28;20216;-50
2021/06/25 04:50:16;;;;;;;3.40;2.27;;;17.10;99.90;;;;;;5075624;28;20171;-49
2021/06/25 04:52:42;;;;;;;2.90;2.67;;;16.90;99.90;;;;;;5074747;28;20200;-53
2021/06/25 04:55:08;;;;;;;2.47;2.27;;;16.90;99.90;;;;;;5075188;28;20180;-50
2021/06/25 04:57:34;;;;;;;2.43;2.23;;;16.90;99.90;;;;;;5075832;28;20201;-50
2021/06/25 05:00:00;;;;;;;2.50;2.13;;;16.80;99.90;;;;;;5075465;28;20171;-51
2021/06/25 05:02:26;;;;;;;3.47;2.10;;;17.00;99.90;;;;;;5072492;28;20289;-51
2021/06/25 05:04:51;;;;;;;1.93;1.73;;;17.10;99.90;;;;;;5074222;28;20263;-51
2021/06/25 05:07:18;;;;;;;2.30;2.10;;;17.20;99.90;;;;;;5075627;28;20195;-56
2021/06/25 05:09:43;;;;;;;1.93;1.83;;;17.40;99.90;;;;;;5074170;28;20219;-57
2021/06/25 05:12:09;;;;;;;1.97;1.87;;;17.50;99.90;;;;;;5074760;28;20176;-54
2021/06/25 05:14:35;;;;;;;1.83;1.73;;;17.40;99.90;;;;;;5074040;28;20189;-49
2021/06/25 05:17:00;;;;;;;2.07;1.93;;;17.30;99.90;;;;;;5073465;28;20686;-50
2021/06/25 05:19:26;;;;;;;2.20;2.00;;;17.30;99.90;;;;;;5074874;28;20525;-54
2021/06/25 05:21:52;;;;;;;2.00;1.80;;;17.30;99.90;;;;;;5073903;28;20238;-52
2021/06/25 05:24:17;;;;;;;2.07;1.90;;;17.30;99.90;;;;;;5074835;28;20203;-50
2021/06/25 05:26:43;;;;;;;2.10;1.83;;;17.30;99.90;;;;;;5074539;28;20593;-52
2021/06/25 05:29:08;;;;;;;1.80;1.70;;;17.30;99.90;;;;;;5075153;28;20196;-53
2021/06/25 05:31:34;;;;;;;2.00;1.80;;;17.30;99.90;;;;;;5074644;28;20183;-50
2021/06/25 05:34:00;;;;;;;1.70;1.60;;;17.50;99.90;;;;;;5073868;28;20186;-49
2021/06/25 05:36:25;;;;;;;1.30;1.20;;;17.50;99.90;;;;;;5075106;28;20201;-56
2021/06/25 05:38:51;;;;;;;1.50;1.40;;;17.60;99.90;;;;;;5074762;28;20652;-55
2021/06/25 05:41:17;;;;;;;1.27;1.13;;;17.70;99.90;;;;;;5073529;28;20666;-58
2021/06/25 05:43:43;;;;;;;1.50;1.40;;;17.80;99.90;;;;;;5074740;28;20228;-52
2021/06/25 05:46:10;;;;;;;1.33;1.23;;;17.70;99.90;;;;;;5074443;28;20170;-50
2021/06/25 05:48:36;;;;;;;1.50;1.40;;;17.70;99.90;;;;;;5074473;28;20212;-54
2021/06/25 05:51:02;;;;;;;1.70;1.60;;;17.70;99.90;;;;;;5074331;28;20185;-55
2021/06/25 05:53:30;;;;;;;1.63;1.53;;;17.50;99.90;;;;;;5073252;28;20649;-49
2021/06/25 05:55:56;;;;;;;1.60;1.50;;;17.40;99.90;;;;;;5073991;28;20200;-54
2021/06/25 05:58:21;;;;;;;1.40;1.30;;;17.60;99.90;;;;;;5073291;28;20281;-52
2021/06/25 06:00:47;;;;;;;2.00;1.40;;;17.70;99.90;;;;;;5073459;28;20176;-55
2021/06/25 06:03:12;;;;;;;1.63;1.53;;;17.80;99.90;;;;;;5073782;28;20182;-51
2021/06/25 06:05:38;;;;;;;2.10;1.90;;;17.90;99.90;;;;;;5073158;28;20662;-50
2021/06/25 06:08:04;;;;;;;1.70;1.60;;;18.00;99.90;;;;;;5074821;28;20194;-52
2021/06/25 06:10:30;;;;;;;2.77;2.20;;;18.00;99.90;;;;;;5072997;28;20593;-58
2021/06/25 06:12:55;;;;;;;1.70;1.60;;;17.90;99.90;;;;;;5073834;28;20658;-54
2021/06/25 06:15:21;;;;;;;3.93;2.10;;;18.00;99.90;;;;;;5074118;28;20265;-55
2021/06/25 06:17:47;;;;;;;1.80;1.70;;;18.10;99.90;;;;;;5072472;28;20206;-54
2021/06/25 06:20:18;;;;;;;1.70;1.60;;;18.20;99.90;;;;;;5073998;28;20175;-52
2021/06/25 06:36:28;;;;;;;1.77;1.67;;;18.60;99.90;;;;;;5074152;28;20627;-54
2021/06/25 06:38:56;;;;;;;2.03;1.80;;;18.30;99.90;;;;;;5072695;28;20657;-50
2021/06/25 06:41:22;;;;;;;2.03;1.70;;;18.20;99.90;;;;;;5073526;28;20181;-55
2021/06/25 06:43:48;;;;;;;1.90;1.80;;;18.10;99.90;;;;;;5073608;28;20175;-52
2021/06/25 06:46:15;;;;;;;6.80;1.80;;;18.10;99.90;;;;;;5072610;28;20270;-58
2021/06/25 06:48:43;;;;;;;3.77;1.90;;;18.10;99.90;;;;;;5073733;28;20186;-57
2021/06/25 06:51:08;;;;;;;1.90;1.73;;;18.30;99.90;;;;;;5073676;28;20170;-58
2021/06/25 06:53:35;;;;;;;1.67;1.57;;;18.40;99.90;;;;;;5071803;28;20316;-50
2021/06/25 06:56:01;;;;;;;3.23;1.80;;;18.50;99.90;;;;;;5073804;28;20285;-55
2021/06/25 06:58:26;;;;;;;2.03;1.87;;;18.70;99.90;;;;;;5072515;28;20286;-55
2021/06/25 07:00:53;;;;;;;1.80;1.30;;;18.80;99.90;;;;;;5073416;28;20198;-56
2021/06/25 07:03:18;;;;;;;1.47;1.37;;;18.90;99.90;;;;;;5072971;28;20194;-57
2021/06/25 07:05:44;;;;;;;1.70;1.50;;;19.00;99.90;;;;;;5073162;28;20193;-58
2021/06/25 07:08:10;;;;;;;1.50;1.40;;;19.10;99.90;;;;;;5073260;28;20541;-56
2021/06/25 07:10:36;;;;;;;1.50;1.40;;;19.20;99.90;;;;;;5074334;28;20642;-56
2021/06/25 07:13:01;;;;;;;1.67;1.57;;;19.00;99.90;;;;;;5076169;28;20195;-51
2021/06/25 07:15:27;;;;;;;1.70;1.60;;;18.80;99.90;;;;;;5077361;28;20232;-51
2021/06/25 07:17:53;;;;;;;1.97;1.63;;;18.80;99.90;;;;;;5076890;28;20541;-59
2021/06/25 07:20:18;;;;;;;2.10;2.00;;;18.70;99.90;;;;;;5077124;28;20178;-53
2021/06/25 07:22:44;;;;;;;2.47;2.20;;;18.60;99.90;;;;;;5076999;28;20179;-58
2021/06/25 07:25:10;;;;;;;2.00;1.90;;;18.50;99.90;;;;;;5077062;28;20170;-52
2021/06/25 07:27:36;;;;;;;1.80;1.70;;;18.30;99.90;;;;;;5076881;28;20550;-53
2021/06/25 07:30:04;;;;;;;1.70;1.60;;;18.20;99.90;;;;;;5077350;28;20198;-50
2021/06/25 07:32:30;;;;;;;2.10;1.90;;;18.30;99.90;;;;;;5076727;28;20174;-53
2021/06/25 07:34:56;;;;;;;1.90;1.70;;;18.40;99.90;;;;;;5076941;28;20183;-55
2021/06/25 07:37:22;;;;;;;2.27;1.43;;;18.80;99.90;;;;;;5076611;28;20206;-53
2021/06/25 07:39:47;;;;;;;2.90;2.10;;;19.00;99.90;;;;;;5076711;28;20649;-53
2021/06/25 07:42:13;;;;;;;2.60;1.93;;;19.30;99.90;;;;;;5075707;28;20186;-54
2021/06/25 07:44:39;;;;;;;1.50;1.40;;;19.40;99.90;;;;;;5076661;28;20166;-53
2021/06/25 07:47:04;;;;;;;1.60;1.50;;;19.30;99.90;;;;;;5076544;28;20194;-55
2021/06/25 07:49:30;;;;;;;1.60;1.50;;;19.10;99.90;;;;;;5075654;28;20181;-54
2021/06/25 07:51:56;;;;;;;1.40;1.30;;;19.10;99.90;;;;;;5076625;28;20260;-51
2021/06/25 07:54:21;;;;;;;1.60;1.50;;;19.00;99.90;;;;;;5076132;28;20198;-58
2021/06/25 07:56:47;;;;;;;1.50;1.37;;;18.90;99.90;;;;;;5076181;28;20206;-55
2021/06/25 07:59:12;;;;;;;1.90;1.43;;;18.80;99.90;;;;;;5077294;28;20202;-55
2021/06/25 08:01:38;;;;;;;2.07;1.30;;;18.90;99.90;;;;;;5075315;28;20240;-50
2021/06/25 08:04:03;;;;;;;1.70;1.60;;;18.90;99.90;;;;;;5076206;28;20185;-51
2021/06/25 08:06:29;;;;;;;1.60;1.50;;;18.90;99.90;;;;;;5076346;28;20183;-52
2021/06/25 08:08:55;;;;;;;1.60;1.50;;;18.80;99.90;;;;;;5076113;28;20590;-52
2021/06/25 08:11:21;;;;;;;2.07;1.87;;;18.80;99.90;;;;;;5075876;28;20178;-55
2021/06/25 08:13:46;;;;;;;1.70;1.60;;;18.60;99.90;;;;;;5076337;28;20495;-54
2021/06/25 08:16:12;;;;;;;1.80;1.70;;;18.60;99.90;;;;;;5076357;28;20210;-52
2021/06/25 08:18:38;;;;;;;1.90;1.70;;;18.50;99.90;;;;;;5076273;28;20680;-54
2021/06/25 08:21:04;;;;;;;1.97;1.77;;;18.40;99.90;;;;;;5076372;28;20176;-51
2021/06/25 08:23:29;;;;;;;1.83;1.73;;;18.40;99.90;;;;;;5074054;28;20191;-50
2021/06/25 08:25:55;;;;;;;1.63;1.53;;;18.50;99.90;;;;;;5075966;28;20182;-51
2021/06/25 08:28:20;;;;;;;1.70;1.60;;;18.40;99.90;;;;;;5075221;28;20195;-57
2021/06/25 08:30:46;;;;;;;2.00;1.83;;;18.40;99.90;;;;;;5076070;28;20590;-51
2021/06/25 08:33:12;;;;;;;3.63;1.67;;;18.40;99.90;;;;;;5076170;28;20175;-58
2021/06/25 08:35:37;;;;;;;2.83;1.47;;;18.50;99.90;;;;;;5075782;28;20199;-51
2021/06/25 08:38:03;;;;;;;1.90;1.80;;;18.60;99.90;;;;;;5076475;28;20188;-52
2021/06/25 08:40:28;;;;;;;1.70;1.60;;;18.80;99.90;;;;;;5075447;28;20174;-51
2021/06/25 08:42:54;;;;;;;1.70;1.60;;;19.00;99.90;;;;;;5074722;28;20244;-53
2021/06/25 08:45:19;;;;;;;1.93;1.60;;;19.10;99.90;;;;;;5075587;28;20707;-53
2021/06/25 08:47:50;;;;;;;1.90;1.80;;;19.30;99.90;;;;;;5075271;28;20637;-55
2021/06/25 08:50:20;;;;;;;3.70;1.53;;;19.50;99.90;;;;;;5074961;28;20201;-54
2021/06/25 08:52:49;;;;;;;1.60;1.50;;;19.80;99.90;;;;;;5075558;28;20212;-53
2021/06/25 08:55:16;;;;;;;1.90;1.40;;;20.10;99.90;;;;;;5074285;28;20195;-51
2021/06/25 08:57:42;;;;;;;1.88;1.77;;;20.20;99.90;;;;;;5075450;28;20682;-52
2021/06/25 09:00:16;;;;;;;1.70;1.60;;;20.40;99.90;;;;;;5074622;28;20179;-52
2021/06/25 09:02:43;;;;;;;3.33;1.42;;;20.60;99.90;;;;;;5073516;28;20191;-52
2021/06/25 09:05:29;;;;;;;1.65;1.55;;;20.70;99.90;;;;;;5075305;28;20171;-54
2021/06/25 09:07:56;;;;;;;1.40;1.30;;;21.00;99.90;;;;;;5074978;28;20216;-58
2021/06/25 09:10:42;;;;;;;1.50;1.40;;;21.40;99.90;;;;;;5075199;28;20181;-57
2021/06/25 09:13:11;;;;;;;1.40;1.30;;;21.90;99.90;;;;;;5073867;28;20205;-51
2021/06/25 09:15:38;;;;;;;1.10;1.10;;;22.20;99.90;;;;;;5075662;28;20199;-55
2021/06/25 09:18:07;;;;;;;1.20;1.10;;;22.50;99.90;;;;;;5074307;28;20267;-59
2021/06/25 09:20:45;;;;;;;1.30;1.20;;;22.60;99.90;;;;;;5075017;28;20637;-56
2021/06/25 09:23:12;;;;;;;1.42;1.33;;;22.50;99.90;;;;;;5074763;28;20630;-59
2021/06/25 09:26:05;;;;;;;1.27;1.23;;;22.30;99.90;;;;;;5073914;28;20331;-59
2021/06/25 09:28:39;;;;;;;1.67;1.58;;;22.00;99.90;;;;;;5074725;28;20226;-55
2021/06/25 09:31:14;;;;;;;1.42;1.33;;;21.90;99.90;;;;;;5073730;28;20167;-54
2021/06/25 09:33:48;;;;;;;1.27;1.15;;;21.80;99.90;;;;;;5074991;28;20184;-56
2021/06/25 09:36:24;;;;;;;1.48;1.38;;;21.60;99.90;;;;;;5073981;28;20298;-57
2021/06/25 09:39:04;;;;;;;1.08;1.08;;;21.00;99.90;;;;;;5074778;28;20174;-54
2021/06/25 09:41:30;;;;;;;1.40;1.30;;;20.70;99.90;;;;;;5074181;28;20202;-58
2021/06/25 09:44:08;;;;;;;1.73;1.20;;;20.50;99.90;;;;;;5073645;28;20192;-54
2021/06/25 09:46:40;;;;;;;1.30;1.20;;;20.90;99.90;;;;;;5074434;28;20254;-54
2021/06/25 09:49:15;;;;;;;2.35;1.10;;;21.20;99.90;;;;;;5074257;28;20247;-54
2021/06/25 09:51:58;;;;;;;1.30;1.23;;;21.70;99.90;;;;;;5074307;28;20645;-53
2021/06/25 09:54:26;;;;;;;1.00;1.00;;;21.90;99.90;;;;;;5073269;28;20190;-53
2021/06/25 09:57:06;;;;;;;1.60;1.50;;;22.40;99.90;;;;;;5074146;28;20214;-60
2021/06/25 10:02:31;;;;;;;1.30;1.20;;;22.70;99.90;;;;;;5053962;28;20505;-54
2021/06/25 10:05:10;;;;;;;0.80;0.80;;;22.20;99.90;;;;;;5071209;28;20179;-57
2021/06/25 10:07:36;;;;;;;1.40;1.30;;;21.80;99.90;;;;;;5073732;28;20658;-57
2021/06/25 10:10:10;;;;;;;1.30;1.20;;;21.70;99.90;;;;;;5073269;28;20229;-52
2021/06/25 10:12:37;;;;;;;1.50;1.30;;;21.80;99.90;;;;;;5072138;28;20198;-54
2021/06/25 10:15:04;;;;;;;3.25;1.52;;;21.90;99.90;;;;;;5070150;28;20240;-59
2021/06/25 10:17:30;;;;;;;1.05;1.05;;;22.00;99.90;;;;;;5073197;28;20613;-56
2021/06/25 10:20:03;;;;;;;1.40;1.30;;;22.20;99.90;;;;;;5072612;28;20170;-53
2021/06/25 10:22:29;;;;;;;1.30;1.20;;;22.10;99.90;;;;;;5070720;28;20678;-59
2021/06/25 10:24:56;;;;;;;1.30;1.20;;;21.80;99.90;;;;;;5073306;28;20262;-56
2021/06/25 10:27:23;;;;;;;1.42;1.33;;;21.90;99.90;;;;;;5073209;28;20236;-52
2021/06/25 10:29:50;;;;;;;1.30;1.17;;;21.90;99.90;;;;;;5072485;28;20534;-52
2021/06/25 10:32:17;;;;;;;1.27;1.17;;;21.80;99.90;;;;;;5073297;28;20193;-54
2021/06/25 10:34:43;;;;;;;1.08;0.98;;;21.90;99.90;;;;;;5072267;28;20186;-53
2021/06/25 10:37:13;;;;;;;1.00;0.90;;;22.10;99.90;;;;;;5073135;28;20285;-54
2021/06/25 10:39:39;;;;;;;1.10;1.08;;;22.30;99.90;;;;;;5072718;28;20174;-52
2021/06/25 10:42:10;;;;;;;1.10;1.00;;;22.60;99.90;;;;;;5073108;28;20174;-51
2021/06/25 10:44:54;;;;;;;1.00;1.00;;;23.00;99.90;;;;;;5073947;28;20178;-58
2021/06/25 10:47:32;;;;;;;1.08;0.98;;;23.20;99.90;;;;;;5076673;28;20225;-58
2021/06/25 10:50:07;;;;;;;1.30;1.02;;;23.50;99.90;;;;;;5078057;28;20201;-58
2021/06/25 10:52:33;;;;;;;0.80;0.80;;;23.50;99.90;;;;;;5076893;28;20147;-53
2021/06/25 10:55:09;;;;;;;0.80;0.80;;;23.50;99.90;;;;;;5077192;28;20185;-53
2021/06/25 10:57:57;;;;;;;1.35;0.70;;;23.90;99.90;;;;;;5077647;28;20197;-51
2021/06/25 11:00:30;;;;;;;1.75;0.90;;;24.10;99.90;;;;;;5077772;28;20188;-51
2021/06/25 11:02:56;;;;;;;0.90;0.90;;;24.00;99.90;;;;;;5076324;28;20228;-52
2021/06/25 11:05:21;;;;;;;0.60;0.60;;;23.60;99.90;;;;;;5077808;28;20175;-59
2021/06/25 11:07:52;;;;;;;0.60;0.52;;;23.50;99.90;;;;;;5077177;28;20266;-53
2021/06/25 11:10:25;;;;;;;0.68;0.68;;;23.50;99.90;;;;;;5076928;28;20254;-54
2021/06/25 11:13:14;;;;;;;0.50;0.50;;;23.30;99.90;;;;;;5077114;28;20655;-52
2021/06/25 11:15:41;;;;;;;1.98;0.80;;;23.20;99.90;;;;;;5076114;28;20247;-55
2021/06/25 11:18:21;;;;;;;1.13;1.10;;;23.50;99.90;;;;;;5077807;28;20187;-54
2021/06/25 11:20:53;;;;;;;2.15;0.80;;;23.60;99.90;;;;;;5074930;28;20303;-55
2021/06/25 11:23:23;;;;;;;0.80;0.80;;;23.80;99.90;;;;;;5077100;28;20181;-54
2021/06/25 11:26:03;;;;;;;0.75;0.70;;;24.10;99.90;;;;;;5077258;28;20175;-53
2021/06/25 11:28:32;;;;;;;1.33;0.90;;;24.10;99.90;;;;;;5077118;28;20689;-56
2021/06/25 11:31:05;;;;;;;1.00;0.90;;;24.10;99.90;;;;;;5077564;28;20262;-53
2021/06/25 11:33:50;;;;;;;1.02;1.00;;;24.00;99.90;;;;;;5076099;28;20187;-55
2021/06/25 11:36:38;;;;;;;1.30;0.93;;;24.10;99.90;;;;;;5076925;28;20198;-53
2021/06/25 11:39:08;;;;;;;0.82;0.70;;;24.00;99.90;;;;;;5076105;28;20254;-51
2021/06/25 11:41:44;;;;;;;0.63;0.60;;;24.10;99.90;;;;;;5076815;28;20190;-52
2021/06/25 11:44:21;;;;;;;0.47;0.47;;;24.50;99.90;;;;;;5076887;28;20641;-53
2021/06/25 11:47:11;;;;;;;0.90;0.60;;;24.40;99.90;;;;;;5077089;28;20194;-53
2021/06/25 11:49:46;;;;;;;0.50;0.50;;;24.30;99.90;;;;;;5076825;28;20179;-58
2021/06/25 11:52:14;;;;;;;0.50;0.50;;;24.20;99.90;;;;;;5076715;28;20188;-53
2021/06/25 11:54:42;;;;;;;0.68;0.65;;;24.00;99.90;;;;;;5076668;28;20183;-54
2021/06/25 11:57:21;;;;;;;1.75;0.63;;;23.90;99.90;;;;;;5075471;28;20230;-59
2021/06/25 12:00:11;;;;;;;1.70;0.70;;;23.70;99.90;;;;;;5076641;28;20232;-56
2021/06/25 12:02:52;;;;;;;0.70;0.70;;;23.40;99.90;;;;;;5075185;28;20190;-58
2021/06/25 12:05:26;;;;;;;0.60;0.60;;;23.40;99.90;;;;;;5076492;28;20254;-58
2021/06/25 12:08:01;;;;;;;2.30;1.05;;;23.20;99.90;;;;;;5076784;28;20220;-54
2021/06/25 12:10:27;;;;;;;1.08;0.70;;;23.40;99.90;;;;;;5076483;28;20253;-51
2021/06/25 12:13:00;;;;;;;0.73;0.73;;;23.40;99.90;;;;;;5075189;28;20579;-60
2021/06/25 12:15:27;;;;;;;2.13;0.68;;;23.60;99.90;;;;;;5076176;28;20530;-52
2021/06/25 12:17:54;;;;;;;0.75;0.73;;;23.80;99.90;;;;;;5076064;28;20214;-54
2021/06/25 12:20:28;;;;;;;0.70;0.70;;;23.90;99.90;;;;;;5075030;28;20167;-52
2021/06/25 12:22:56;;;;;;;0.95;0.82;;;23.90;99.90;;;;;;5076226;28;20171;-57
2021/06/25 12:25:40;;;;;;;0.63;0.63;;;24.30;99.90;;;;;;5075062;28;20256;-55
2021/06/25 12:28:17;;;;;;;1.08;0.88;;;24.60;99.90;;;;;;5075887;28;20193;-61
2021/06/25 12:30:49;;;;;;;0.95;0.68;;;24.60;99.90;;;;;;5074903;28;20629;-57
2021/06/25 12:33:16;;;;;;;0.73;0.73;;;24.80;99.90;;;;;;5075779;28;20186;-54
2021/06/25 12:35:50;;;;;;;1.20;0.90;;;24.70;99.90;;;;;;5075773;28;20196;-57
2021/06/25 12:38:18;;;;;;;0.95;0.95;;;24.70;99.90;;;;;;5074657;28;20666;-54
2021/06/25 12:40:43;;;;;;;2.05;1.00;;;24.70;99.90;;;;;;5075927;28;20174;-59
2021/06/25 12:43:11;;;;;;;0.60;0.60;;;24.60;99.90;;;;;;5074556;28;20518;-53
2021/06/25 12:45:42;;;;;;;0.50;0.50;;;24.50;99.90;;;;;;5076074;28;20216;-59
2021/06/25 12:48:16;;;;;;;1.10;0.77;;;23.80;99.90;;;;;;5074495;28;20353;-56
2021/06/25 12:50:43;;;;;;;0.98;0.80;;;23.70;99.90;;;;;;5075831;28;20217;-55
2021/06/25 12:53:11;;;;;;;1.17;0.60;;;23.90;99.90;;;;;;5074355;28;20194;-53
2021/06/25 12:55:37;;;;;;;1.13;0.60;;;24.10;99.90;;;;;;5075233;28;20236;-53
2021/06/25 12:58:02;;;;;;;1.25;0.60;;;24.00;99.90;;;;;;5075566;28;20512;-54
2021/06/25 13:00:29;;;;;;;0.60;0.60;;;23.70;99.90;;;;;;5075280;28;20710;-52
2021/06/25 13:02:55;;;;;;;0.80;0.70;;;23.60;99.90;;;;;;5074222;28;20198;-59
2021/06/25 13:05:33;;;;;;;1.58;0.68;;;23.80;99.90;;;;;;5075191;28;20220;-61
2021/06/25 13:08:00;;;;;;;0.57;0.57;;;23.80;99.90;;;;;;5074063;28;20247;-56
2021/06/25 13:10:28;;;;;;;0.85;0.50;;;23.70;99.90;;;;;;5074679;28;20174;-50